createdAt,value
2019-02-23T00:00:45.961Z,4.50
2019-02-23T00:03:15.595Z,4.50
2019-02-23T00:05:45.245Z,4.90
2019-02-23T00:08:14.893Z,4.70
2019-02-23T00:10:48.078Z,4.50
2019-02-23T00:13:17.701Z,4.30
2019-02-23T00:15:47.348Z,4.50
2019-02-23T00:18:16.977Z,4.70
2019-02-23T00:20:46.728Z,4.80
2019-02-23T00:23:16.354Z,5.00
2019-02-23T00:25:46.018Z,5.20
2019-02-23T00:28:15.632Z,5.20
2019-02-23T00:30:45.325Z,5.20
2019-02-23T00:33:14.945Z,5.30
2019-02-23T00:35:44.593Z,5.30
2019-02-23T00:38:14.296Z,5.40
2019-02-23T00:40:43.869Z,5.70
2019-02-23T00:43:13.493Z,5.80
2019-02-23T00:45:43.151Z,5.90
2019-02-23T00:48:12.777Z,6.00
2019-02-23T00:50:42.456Z,6.00
2019-02-23T00:53:12.082Z,5.90
2019-02-23T00:55:41.733Z,5.80
2019-02-23T00:58:11.361Z,5.90
2019-02-23T01:00:41.019Z,6.00
2019-02-23T01:03:10.641Z,6.10
2019-02-23T01:05:40.284Z,6.10
2019-02-23T01:08:09.917Z,6.10
2019-02-23T01:10:39.625Z,6.10
2019-02-23T01:13:09.250Z,6.10
2019-02-23T01:15:39.179Z,6.00
2019-02-23T01:18:08.829Z,5.90
2019-02-23T01:20:38.448Z,6.00
2019-02-23T01:23:08.167Z,5.90
2019-02-23T01:25:37.818Z,5.90
2019-02-23T01:28:07.465Z,6.00
2019-02-23T01:30:37.521Z,6.00
2019-02-23T01:33:07.163Z,6.00
2019-02-23T01:35:36.861Z,6.00
2019-02-23T01:38:06.511Z,5.90
2019-02-23T01:40:36.190Z,6.00
2019-02-23T01:43:05.905Z,6.00
2019-02-23T01:45:42.364Z,6.00
2019-02-23T01:48:06.873Z,6.00
2019-02-23T01:50:36.501Z,6.00
2019-02-23T01:53:06.151Z,6.00
2019-02-23T01:55:35.909Z,6.00
2019-02-23T01:58:05.637Z,6.00
2019-02-23T02:00:35.648Z,6.00
2019-02-23T02:03:05.441Z,6.00
2019-02-23T02:05:35.068Z,6.00
2019-02-23T02:08:04.902Z,6.10
2019-02-23T02:10:34.535Z,6.00
2019-02-23T02:13:04.210Z,6.00
2019-02-23T02:15:33.821Z,6.10
2019-02-23T02:18:03.459Z,6.10
2019-02-23T02:20:33.075Z,6.00
2019-02-23T02:23:02.795Z,6.00
2019-02-23T02:25:32.494Z,6.10
2019-02-23T02:28:02.065Z,6.00
2019-02-23T02:30:31.687Z,6.00
2019-02-23T02:33:01.339Z,6.00
2019-02-23T02:35:30.955Z,6.10
2019-02-23T02:38:00.619Z,6.20
2019-02-23T02:40:30.274Z,6.10
2019-02-23T02:42:59.927Z,6.00
2019-02-23T02:45:29.553Z,6.10
2019-02-23T02:47:59.210Z,6.10
2019-02-23T02:50:28.837Z,6.00
2019-02-23T02:52:58.484Z,6.10
2019-02-23T02:55:28.109Z,6.20
2019-02-23T02:57:57.753Z,6.20
2019-02-23T03:00:27.412Z,6.10
2019-02-23T03:02:57.057Z,5.90
2019-02-23T03:05:26.750Z,5.80
2019-02-23T03:07:56.473Z,5.60
2019-02-23T03:10:26.096Z,5.70
2019-02-23T03:12:55.731Z,5.70
2019-02-23T03:15:25.419Z,5.70
2019-02-23T03:17:55.013Z,5.70
2019-02-23T03:20:35.959Z,5.50
2019-02-23T03:22:55.961Z,5.60
2019-02-23T03:25:25.580Z,5.60
2019-02-23T03:27:55.296Z,5.70
2019-02-23T03:30:24.990Z,5.60
2019-02-23T03:32:54.637Z,5.70
2019-02-23T03:35:24.268Z,5.80
2019-02-23T03:37:53.912Z,5.80
2019-02-23T03:40:23.533Z,5.70
2019-02-23T03:42:53.172Z,5.70
2019-02-23T03:45:22.795Z,5.70
2019-02-23T03:47:52.443Z,5.80
2019-02-23T03:50:22.144Z,5.70
2019-02-23T03:52:51.788Z,5.70
2019-02-23T03:55:21.576Z,5.70
2019-02-23T03:57:51.277Z,5.70
2019-02-23T04:00:21.022Z,5.40
2019-02-23T04:02:50.641Z,5.40
2019-02-23T04:05:20.280Z,5.40
2019-02-23T04:07:49.977Z,5.40
2019-02-23T04:10:19.721Z,5.30
2019-02-23T04:12:49.368Z,5.10
2019-02-23T04:15:19.101Z,5.10
2019-02-23T04:17:48.696Z,5.10
2019-02-23T04:20:18.353Z,5.20
2019-02-23T04:22:48.054Z,5.20
2019-02-23T04:25:17.728Z,5.00
2019-02-23T04:27:47.365Z,5.00
2019-02-23T04:30:17.127Z,5.00
2019-02-23T04:32:46.749Z,4.90
2019-02-23T04:35:16.399Z,4.80
2019-02-23T04:37:46.018Z,4.80
2019-02-23T04:40:15.667Z,4.90
2019-02-23T04:42:45.284Z,4.80
2019-02-23T04:45:15.000Z,4.50
2019-02-23T04:47:44.635Z,4.50
2019-02-23T04:50:16.041Z,4.50
2019-02-23T04:52:45.678Z,4.40
2019-02-23T04:55:15.322Z,4.50
2019-02-23T04:57:44.961Z,4.50
2019-02-23T05:00:15.473Z,4.50
2019-02-23T05:02:45.106Z,4.40
2019-02-23T05:05:14.761Z,4.30
2019-02-23T05:07:44.379Z,4.30
2019-02-23T05:10:14.132Z,4.20
2019-02-23T05:12:43.749Z,4.10
2019-02-23T05:15:13.397Z,4.10
2019-02-23T05:17:43.026Z,4.00
2019-02-23T05:20:12.684Z,3.90
2019-02-23T05:22:42.360Z,3.50
2019-02-23T05:25:12.014Z,3.60
2019-02-23T05:27:41.642Z,3.40
2019-02-23T05:30:12.799Z,3.60
2019-02-23T05:32:42.433Z,3.30
2019-02-23T05:35:13.432Z,3.20
2019-02-23T05:37:43.045Z,3.20
2019-02-23T05:40:13.185Z,3.30
2019-02-23T05:42:42.813Z,3.10
2019-02-23T05:45:12.471Z,3.10
2019-02-23T05:47:42.083Z,3.10
2019-02-23T05:50:12.131Z,3.10
2019-02-23T05:52:42.257Z,2.90
2019-02-23T05:55:12.463Z,2.90
2019-02-23T05:57:42.066Z,2.60
2019-02-23T06:00:14.179Z,2.70
2019-02-23T06:02:45.141Z,2.90
2019-02-23T06:05:15.028Z,2.70
2019-02-23T06:07:44.675Z,2.10
2019-02-23T06:10:14.572Z,2.20
2019-02-23T06:12:44.197Z,2.30
2019-02-23T06:15:13.922Z,2.50
2019-02-23T06:17:43.547Z,2.40
2019-02-23T06:20:13.185Z,2.30
2019-02-23T06:22:42.804Z,1.90
2019-02-23T06:25:12.459Z,2.20
2019-02-23T06:27:42.105Z,1.90
2019-02-23T06:30:12.869Z,2.10
2019-02-23T06:32:42.522Z,2.00
2019-02-23T06:35:12.203Z,2.00
2019-02-23T06:37:41.852Z,2.00
2019-02-23T06:40:15.936Z,1.90
2019-02-23T06:42:45.586Z,1.90
2019-02-23T06:45:15.265Z,2.00
2019-02-23T06:47:44.920Z,1.80
2019-02-23T06:50:14.541Z,2.10
2019-02-23T06:52:44.191Z,2.10
2019-02-23T06:55:13.807Z,1.90
2019-02-23T06:57:43.467Z,2.10
2019-02-23T07:00:15.167Z,2.50
2019-02-23T07:02:44.991Z,3.00
2019-02-23T07:05:14.611Z,3.00
2019-02-23T07:07:44.257Z,3.00
2019-02-23T07:10:14.561Z,3.00
2019-02-23T07:12:44.206Z,3.10
2019-02-23T07:15:13.991Z,3.00
2019-02-23T07:17:44.300Z,3.40
2019-02-23T07:20:17.162Z,3.70
2019-02-23T07:22:47.323Z,3.50
2019-02-23T07:25:17.002Z,3.50
2019-02-23T07:27:46.688Z,3.50
2019-02-23T07:30:16.433Z,3.70
2019-02-23T07:32:46.079Z,3.60
2019-02-23T07:35:15.790Z,3.60
2019-02-23T07:37:45.449Z,3.70
2019-02-23T07:40:16.445Z,3.50
2019-02-23T07:42:46.082Z,3.80
2019-02-23T07:45:16.069Z,3.90
2019-02-23T07:47:45.717Z,4.00
2019-02-23T07:50:16.543Z,4.00
2019-02-23T07:52:46.192Z,3.90
2019-02-23T07:55:15.816Z,4.00
2019-02-23T07:57:45.471Z,4.20
2019-02-23T08:00:16.068Z,4.30
2019-02-23T08:02:45.739Z,4.70
2019-02-23T08:05:15.361Z,5.20
2019-02-23T08:07:45.024Z,5.40
2019-02-23T08:10:14.800Z,6.10
2019-02-23T08:12:44.445Z,6.10
2019-02-23T08:15:14.143Z,6.50
2019-02-23T08:17:43.782Z,6.40
2019-02-23T08:20:14.103Z,6.70
2019-02-23T08:22:43.812Z,6.70
2019-02-23T08:25:14.826Z,6.60
2019-02-23T08:27:44.616Z,6.80
2019-02-23T08:30:15.826Z,6.10
2019-02-23T08:32:45.476Z,5.70
2019-02-23T08:35:15.097Z,5.80
2019-02-23T08:37:44.750Z,6.40
2019-02-23T08:40:17.859Z,7.10
2019-02-23T08:42:47.501Z,7.80
2019-02-23T08:45:17.119Z,7.40
2019-02-23T08:47:48.862Z,7.10
2019-02-23T08:50:18.244Z,7.60
2019-02-23T08:52:49.829Z,7.90
2019-02-23T08:55:19.205Z,7.50
2019-02-23T08:57:48.860Z,7.50
2019-02-23T09:00:19.166Z,8.10
2019-02-23T09:02:48.788Z,8.20
2019-02-23T09:05:18.488Z,9.00
2019-02-23T09:07:48.141Z,9.20
2019-02-23T09:10:17.760Z,9.30
2019-02-23T09:12:47.417Z,9.10
2019-02-23T09:15:17.045Z,9.40
2019-02-23T09:17:46.688Z,10.20
2019-02-23T09:20:16.514Z,10.90
2019-02-23T09:23:00.588Z,10.30
2019-02-23T09:25:30.250Z,10.10
2019-02-23T09:27:59.900Z,10.20
2019-02-23T09:30:31.553Z,10.50
2019-02-23T09:33:01.281Z,10.90
2019-02-23T09:35:30.846Z,11.40
2019-02-23T09:38:00.506Z,11.80
2019-02-23T09:40:30.147Z,12.10
2019-02-23T09:42:59.805Z,12.10
2019-02-23T09:45:29.437Z,12.40
2019-02-23T09:47:59.098Z,12.40
2019-02-23T09:50:29.373Z,12.90
2019-02-23T09:52:59.041Z,14.90
2019-02-23T09:55:28.677Z,17.70
2019-02-23T09:57:58.333Z,19.30
2019-02-23T10:00:28.048Z,19.80
2019-02-23T10:02:57.700Z,21.00
2019-02-23T10:05:27.332Z,20.40
2019-02-23T10:07:56.982Z,18.10
2019-02-23T10:10:26.729Z,17.30
2019-02-23T10:12:56.392Z,16.50
2019-02-23T10:15:26.098Z,15.50
2019-02-23T10:17:55.758Z,15.00
2019-02-23T10:20:25.386Z,13.90
2019-02-23T10:22:55.058Z,13.90
2019-02-23T10:25:24.698Z,14.80
2019-02-23T10:27:54.353Z,14.60
2019-02-23T10:30:24.029Z,13.40
2019-02-23T10:32:53.689Z,13.70
2019-02-23T10:35:23.323Z,14.20
2019-02-23T10:37:52.983Z,14.60
2019-02-23T10:40:22.626Z,14.30
2019-02-23T10:42:52.281Z,15.20
2019-02-23T10:45:21.909Z,14.10
2019-02-23T10:47:53.206Z,14.60
2019-02-23T10:50:22.949Z,14.90
2019-02-23T10:52:52.613Z,15.40
2019-02-23T10:55:22.237Z,14.10
2019-02-23T10:57:51.884Z,14.80
2019-02-23T11:00:23.410Z,14.20
2019-02-23T11:02:53.079Z,15.00
2019-02-23T11:05:22.909Z,14.30
2019-02-23T11:07:52.666Z,15.20
2019-02-23T11:10:22.799Z,14.30
2019-02-23T11:12:52.456Z,15.70
2019-02-23T11:15:23.363Z,15.10
2019-02-23T11:17:53.161Z,15.20
2019-02-23T11:20:23.356Z,14.70
2019-02-23T11:22:53.163Z,15.80
2019-02-23T11:25:22.921Z,15.80
2019-02-23T11:27:52.566Z,15.10
2019-02-23T11:30:22.205Z,15.70
2019-02-23T11:32:51.912Z,15.10
2019-02-23T11:35:21.549Z,15.50
2019-02-23T11:37:51.197Z,15.40
2019-02-23T11:40:23.329Z,16.40
2019-02-23T11:42:52.100Z,16.60
2019-02-23T11:45:21.728Z,16.20
2019-02-23T11:47:51.368Z,17.00
2019-02-23T11:50:21.034Z,17.30
2019-02-23T11:52:50.684Z,15.50
2019-02-23T11:55:20.313Z,15.70
2019-02-23T11:57:49.965Z,16.60
2019-02-23T12:00:19.592Z,18.10
2019-02-23T12:02:52.377Z,18.30
2019-02-23T12:05:20.517Z,16.80
2019-02-23T12:07:50.191Z,18.70
2019-02-23T12:10:20.170Z,18.30
2019-02-23T12:12:49.816Z,18.00
2019-02-23T12:15:19.503Z,19.50
2019-02-23T12:17:49.193Z,18.20
2019-02-23T12:20:18.765Z,17.70
2019-02-23T12:22:48.417Z,19.10
2019-02-23T12:25:18.045Z,17.90
2019-02-23T12:27:47.708Z,17.60
2019-02-23T12:30:17.376Z,18.80
2019-02-23T12:32:47.030Z,18.90
2019-02-23T12:35:16.653Z,19.60
2019-02-23T12:37:46.306Z,21.20
2019-02-23T12:40:15.930Z,21.60
2019-02-23T12:42:45.622Z,20.00
2019-02-23T12:45:15.247Z,20.00
2019-02-23T12:47:44.898Z,18.40
2019-02-23T12:50:14.603Z,20.20
2019-02-23T12:52:44.261Z,21.50
2019-02-23T12:55:13.955Z,22.80
2019-02-23T12:57:43.572Z,22.70
2019-02-23T13:00:19.730Z,21.80
2019-02-23T13:02:49.375Z,24.00
2019-02-23T13:05:19.013Z,24.70
2019-02-23T13:07:48.638Z,24.50
2019-02-23T13:10:18.329Z,25.20
2019-02-23T13:12:57.038Z,24.90
2019-02-23T13:15:32.516Z,23.70
2019-02-23T13:18:38.721Z,24.10
2019-02-23T13:21:17.331Z,24.10
2019-02-23T13:23:50.057Z,25.20
2019-02-23T13:26:47.190Z,26.60
2019-02-23T13:29:25.220Z,25.70
2019-02-23T13:32:04.164Z,23.10
2019-02-23T13:34:39.470Z,24.90
2019-02-23T13:37:17.894Z,25.10
2019-02-23T13:39:53.146Z,24.50
2019-02-23T13:42:57.933Z,25.30
2019-02-23T13:45:39.556Z,24.20
2019-02-23T13:48:15.073Z,20.80
2019-02-23T13:50:56.603Z,16.90
2019-02-23T13:53:38.472Z,15.40
2019-02-23T13:56:33.644Z,15.30
2019-02-23T13:59:41.554Z,15.30
2019-02-23T14:02:30.652Z,14.40
2019-02-23T14:05:21.480Z,14.90
2019-02-23T14:08:16.656Z,14.30
2019-02-23T14:10:55.042Z,13.10
2019-02-23T14:13:42.605Z,13.00
2019-02-23T14:16:21.636Z,13.40
2019-02-23T14:19:00.176Z,13.30
2019-02-23T14:22:01.545Z,12.90
2019-02-23T14:24:34.279Z,13.10
2019-02-23T14:27:15.951Z,12.60
2019-02-23T14:29:57.441Z,12.70
2019-02-23T14:32:35.947Z,12.00
2019-02-23T14:35:20.900Z,11.30
2019-02-23T14:38:02.532Z,11.20
2019-02-23T14:40:57.545Z,11.20
2019-02-23T14:43:30.386Z,11.20
2019-02-23T14:46:28.724Z,10.90
2019-02-23T14:49:16.507Z,10.70
2019-02-23T14:52:05.908Z,10.60
2019-02-23T14:54:41.498Z,10.60
2019-02-23T14:57:19.801Z,10.60
2019-02-23T15:00:06.485Z,10.40
2019-02-23T15:02:55.824Z,10.50
2019-02-23T15:05:28.541Z,10.40
2019-02-23T15:08:16.252Z,10.40
2019-02-23T15:11:07.184Z,10.60
2019-02-23T15:14:11.977Z,10.60
2019-02-23T15:17:01.170Z,10.60
2019-02-23T15:20:05.452Z,10.70
2019-02-23T15:22:54.748Z,10.60
2019-02-23T15:25:47.257Z,10.50
2019-02-23T15:28:37.803Z,10.30
2019-02-23T15:31:11.995Z,10.30
2019-02-23T15:34:08.401Z,10.30
2019-02-23T15:36:43.820Z,10.20
2019-02-23T15:39:49.646Z,10.40
2019-02-23T15:42:43.433Z,10.10
2019-02-23T15:45:25.176Z,10.20
2019-02-23T15:48:00.509Z,10.30
2019-02-23T15:50:30.097Z,10.30
2019-02-23T15:52:59.765Z,10.30
2019-02-23T15:55:29.961Z,10.30
2019-02-23T15:57:59.691Z,10.20
2019-02-23T16:00:29.310Z,10.20
2019-02-23T16:02:58.977Z,10.20
2019-02-23T16:05:28.618Z,10.20
2019-02-23T16:07:58.270Z,10.20
2019-02-23T16:10:27.891Z,10.10
2019-02-23T16:12:57.530Z,9.80
2019-02-23T16:15:27.208Z,9.90
2019-02-23T16:17:56.851Z,9.80
2019-02-23T16:20:26.468Z,9.50
2019-02-23T16:22:56.109Z,9.50
2019-02-23T16:25:37.750Z,9.60
2019-02-23T16:27:57.149Z,9.50
2019-02-23T16:30:26.783Z,9.40
2019-02-23T16:32:56.418Z,9.00
2019-02-23T16:35:26.111Z,9.20
2019-02-23T16:37:55.754Z,9.00
2019-02-23T16:40:25.368Z,9.10
2019-02-23T16:42:55.020Z,8.80
2019-02-23T16:45:24.618Z,8.80
2019-02-23T16:47:54.270Z,8.80
2019-02-23T16:50:23.887Z,8.70
2019-02-23T16:52:53.529Z,8.80
2019-02-23T16:55:23.134Z,8.60
2019-02-23T16:57:52.774Z,8.70
2019-02-23T17:00:22.389Z,8.50
2019-02-23T17:02:52.099Z,8.50
2019-02-23T17:05:21.979Z,8.30
2019-02-23T17:07:51.570Z,8.00
2019-02-23T17:10:21.190Z,8.00
2019-02-23T17:12:50.826Z,8.00
2019-02-23T17:15:20.456Z,8.00
2019-02-23T17:17:50.098Z,8.00
2019-02-23T17:20:19.719Z,8.00
2019-02-23T17:22:49.365Z,8.00
2019-02-23T17:25:18.980Z,8.00
2019-02-23T17:27:48.620Z,7.80
2019-02-23T17:30:18.247Z,7.90
2019-02-23T17:32:47.885Z,7.70
2019-02-23T17:35:17.728Z,7.70
2019-02-23T17:37:47.366Z,7.80
2019-02-23T17:40:16.985Z,7.80
2019-02-23T17:42:46.635Z,7.80
2019-02-23T17:45:16.290Z,7.70
2019-02-23T17:47:45.935Z,7.70
2019-02-23T17:50:15.554Z,7.70
2019-02-23T17:52:45.201Z,7.70
2019-02-23T17:55:14.921Z,7.50
2019-02-23T17:57:44.564Z,7.50
2019-02-23T18:00:15.917Z,7.50
2019-02-23T18:02:45.535Z,7.50
2019-02-23T18:05:15.305Z,7.50
2019-02-23T18:07:44.920Z,7.40
2019-02-23T18:10:14.563Z,7.20
2019-02-23T18:12:44.180Z,7.00
2019-02-23T18:15:14.105Z,6.80
2019-02-23T18:17:45.087Z,6.80
2019-02-23T18:20:14.802Z,7.00
2019-02-23T18:22:44.482Z,6.90
2019-02-23T18:25:14.217Z,7.00
2019-02-23T18:27:43.834Z,7.00
2019-02-23T18:30:14.253Z,6.80
2019-02-23T18:32:44.002Z,6.60
2019-02-23T18:35:15.120Z,6.70
2019-02-23T18:37:44.957Z,6.80
2019-02-23T18:40:14.588Z,6.70
2019-02-23T18:42:44.218Z,6.70
2019-02-23T18:45:14.033Z,6.60
2019-02-23T18:47:43.660Z,6.50
2019-02-23T18:50:13.293Z,6.50
2019-02-23T18:52:42.909Z,6.70
2019-02-23T18:55:14.052Z,6.60
2019-02-23T18:57:43.664Z,6.60
2019-02-23T19:00:13.553Z,6.60
2019-02-23T19:02:43.177Z,6.50
2019-02-23T19:05:13.282Z,6.50
2019-02-23T19:07:42.896Z,6.30
2019-02-23T19:10:13.990Z,6.20
2019-02-23T19:12:43.610Z,6.30
2019-02-23T19:15:13.984Z,6.20
2019-02-23T19:17:43.612Z,6.30
2019-02-23T19:20:14.683Z,6.10
2019-02-23T19:22:44.292Z,6.00
2019-02-23T19:25:14.008Z,6.10
2019-02-23T19:27:43.632Z,6.20
2019-02-23T19:30:14.418Z,6.00
2019-02-23T19:32:44.039Z,5.90
2019-02-23T19:35:15.627Z,6.00
2019-02-23T19:37:45.259Z,5.80
2019-02-23T19:40:14.913Z,5.80
2019-02-23T19:42:44.529Z,5.80
2019-02-23T19:45:14.171Z,5.80
2019-02-23T19:47:43.841Z,5.80
2019-02-23T19:50:23.157Z,5.80
2019-02-23T19:52:52.781Z,5.70
2019-02-23T19:55:22.527Z,5.60
2019-02-23T19:57:52.146Z,5.60
2019-02-23T20:00:21.788Z,5.40
2019-02-23T20:02:51.396Z,5.50
2019-02-23T20:05:21.105Z,5.60
2019-02-23T20:07:52.589Z,5.70
2019-02-23T20:10:21.994Z,5.40
2019-02-23T20:12:51.600Z,5.60
2019-02-23T20:15:21.342Z,5.70
2019-02-23T20:17:50.948Z,5.60
2019-02-23T20:20:20.590Z,5.40
2019-02-23T20:22:50.213Z,5.30
2019-02-23T20:25:19.960Z,5.30
2019-02-23T20:27:49.586Z,5.30
2019-02-23T20:30:19.224Z,5.20
2019-02-23T20:32:48.848Z,5.30
2019-02-23T20:35:18.504Z,5.10
2019-02-23T20:37:48.133Z,5.00
2019-02-23T20:40:17.774Z,5.00
2019-02-23T20:42:47.396Z,5.10
2019-02-23T20:45:17.799Z,4.90
2019-02-23T20:47:47.512Z,4.70
2019-02-23T20:50:17.171Z,4.70
2019-02-23T20:52:46.784Z,4.80
2019-02-23T20:55:16.416Z,5.00
2019-02-23T20:57:46.041Z,4.90
2019-02-23T21:00:15.686Z,4.90
2019-02-23T21:02:45.292Z,4.80
2019-02-23T21:05:15.188Z,4.70
2019-02-23T21:07:44.801Z,4.40
2019-02-23T21:10:14.445Z,4.10
2019-02-23T21:12:44.056Z,3.60
2019-02-23T21:15:13.865Z,3.60
2019-02-23T21:17:43.485Z,3.80
2019-02-23T21:20:13.122Z,3.80
2019-02-23T21:22:42.740Z,3.90
2019-02-23T21:25:12.448Z,3.50
2019-02-23T21:27:42.065Z,3.10
2019-02-23T21:30:11.854Z,3.20
2019-02-23T21:32:41.464Z,3.20
2019-02-23T21:35:11.105Z,3.30
2019-02-23T21:37:40.834Z,3.30
2019-02-23T21:40:12.042Z,3.10
2019-02-23T21:42:41.924Z,3.10
2019-02-23T21:45:11.569Z,2.90
2019-02-23T21:47:41.182Z,2.60
2019-02-23T21:50:11.159Z,2.60
2019-02-23T21:52:40.781Z,2.70
2019-02-23T21:55:10.588Z,2.70
2019-02-23T21:57:40.204Z,2.60
2019-02-23T22:00:10.611Z,2.40
2019-02-23T22:02:40.222Z,2.40
2019-02-23T22:05:12.447Z,2.50
2019-02-23T22:07:41.176Z,2.40
2019-02-23T22:10:10.786Z,2.40
2019-02-23T22:12:40.424Z,2.30
2019-02-23T22:15:10.260Z,2.10
2019-02-23T22:17:39.901Z,2.10
2019-02-23T22:20:09.688Z,2.40
2019-02-23T22:22:39.334Z,2.40
2019-02-23T22:25:09.083Z,2.50
2019-02-23T22:27:38.726Z,2.10
2019-02-23T22:30:08.821Z,2.00
2019-02-23T22:32:38.480Z,2.10
2019-02-23T22:35:08.184Z,1.90
2019-02-23T22:37:37.832Z,1.90
2019-02-23T22:40:07.602Z,1.90
2019-02-23T22:42:37.245Z,2.10
2019-02-23T22:45:08.422Z,1.90
2019-02-23T22:47:38.068Z,1.80
2019-02-23T22:50:08.720Z,1.90
2019-02-23T22:52:39.218Z,1.70
2019-02-23T22:55:08.976Z,1.80
2019-02-23T22:57:40.944Z,1.70
2019-02-23T23:00:14.133Z,1.50
2019-02-23T23:02:43.777Z,1.50
2019-02-23T23:05:13.465Z,1.50
2019-02-23T23:07:43.104Z,1.60
2019-02-23T23:10:12.712Z,1.50
2019-02-23T23:12:42.344Z,1.50
2019-02-23T23:15:12.110Z,1.70
2019-02-23T23:17:41.748Z,1.60
2019-02-23T23:20:11.372Z,1.60
2019-02-23T23:22:41.010Z,1.60
2019-02-23T23:25:10.650Z,1.70
2019-02-23T23:27:48.930Z,1.70
2019-02-23T23:30:11.584Z,1.70
2019-02-23T23:32:41.232Z,1.60
2019-02-23T23:35:10.922Z,1.70
2019-02-23T23:37:40.574Z,1.50
2019-02-23T23:40:10.190Z,1.40
2019-02-23T23:42:39.823Z,1.40
2019-02-23T23:45:09.512Z,1.30
2019-02-23T23:47:39.144Z,1.30
2019-02-23T23:50:08.834Z,1.10
2019-02-23T23:52:38.478Z,1.10
2019-02-23T23:55:08.200Z,1.20
2019-02-23T23:57:37.836Z,1.10
